createdAt,value
2022-12-01T00:01:26.524Z,82.82
2022-12-01T00:03:55.249Z,82.38
2022-12-01T00:06:23.580Z,83.07
2022-12-01T00:09:12.966Z,82.68
2022-12-01T00:11:44.819Z,82.88
2022-12-01T00:14:12.792Z,82.08
2022-12-01T00:16:41.339Z,82.53
2022-12-01T00:19:09.272Z,81.82
2022-12-01T00:21:37.256Z,81.67
2022-12-01T00:24:05.412Z,81.84
2022-12-01T00:26:33.361Z,81.93
2022-12-01T00:29:02.654Z,82.20
2022-12-01T00:31:30.629Z,81.72
2022-12-01T00:33:58.579Z,81.71
2022-12-01T00:36:26.680Z,81.79
2022-12-01T00:38:56.468Z,82.22
2022-12-01T00:41:26.038Z,82.37
2022-12-01T00:43:54.030Z,82.38
2022-12-01T00:46:23.356Z,82.50
2022-12-01T00:48:51.303Z,82.16
2022-12-01T00:51:19.145Z,82.77
2022-12-01T00:53:47.191Z,83.32
2022-12-01T00:56:15.181Z,83.46
2022-12-01T00:58:43.095Z,83.15
2022-12-01T01:01:11.004Z,82.82
2022-12-01T01:03:40.397Z,83.04
2022-12-01T01:06:10.424Z,82.62
2022-12-01T01:08:38.844Z,83.05
2022-12-01T01:11:07.752Z,83.00
2022-12-01T01:13:36.816Z,82.62
2022-12-01T01:16:07.158Z,82.82
2022-12-01T01:18:35.672Z,82.23
2022-12-01T01:21:07.207Z,81.15
2022-12-01T01:23:35.684Z,82.67
2022-12-01T01:26:04.926Z,82.83
2022-12-01T01:28:33.329Z,83.14
2022-12-01T01:31:01.301Z,83.41
2022-12-01T01:33:29.313Z,83.47
2022-12-01T01:36:00.094Z,83.89
2022-12-01T01:38:30.196Z,83.96
2022-12-01T01:40:58.096Z,83.95
2022-12-01T01:43:45.110Z,83.30
2022-12-01T01:46:15.501Z,83.54
2022-12-01T01:48:46.401Z,83.35
2022-12-01T01:51:16.835Z,83.31
2022-12-01T01:53:47.583Z,83.35
2022-12-01T01:56:15.869Z,83.94
2022-12-01T01:58:45.081Z,84.46
2022-12-01T02:01:13.314Z,84.00
2022-12-01T02:03:42.866Z,83.79
2022-12-01T02:06:12.445Z,83.86
2022-12-01T02:08:40.325Z,83.69
2022-12-01T02:11:27.677Z,82.09
2022-12-01T02:14:03.208Z,81.47
2022-12-01T02:16:41.933Z,82.05
2022-12-01T02:19:29.340Z,81.89
2022-12-01T02:22:10.693Z,81.07
2022-12-01T02:25:15.854Z,80.46
2022-12-01T02:28:05.378Z,79.21
2022-12-01T02:30:42.209Z,78.44
2022-12-01T02:33:18.596Z,78.23
2022-12-01T02:35:51.694Z,77.10
2022-12-01T02:38:25.604Z,77.86
2022-12-01T02:40:58.605Z,78.04
2022-12-01T02:43:32.669Z,77.30
2022-12-01T02:46:08.290Z,77.14
2022-12-01T02:48:39.294Z,77.43
2022-12-01T02:51:13.904Z,77.07
2022-12-01T02:53:42.296Z,77.02
2022-12-01T02:56:13.147Z,76.76
2022-12-01T02:58:41.282Z,76.75
2022-12-01T03:01:25.121Z,77.24
2022-12-01T03:04:03.773Z,78.04
2022-12-01T03:06:42.697Z,78.36
2022-12-01T03:09:21.695Z,77.76
2022-12-01T03:11:59.968Z,77.62
2022-12-01T03:14:38.692Z,77.75
2022-12-01T03:17:12.013Z,78.20
2022-12-01T03:19:45.408Z,78.86
2022-12-01T03:22:18.771Z,78.83
2022-12-01T03:24:50.214Z,79.16
2022-12-01T03:27:22.956Z,79.12
2022-12-01T03:29:55.656Z,79.44
2022-12-01T03:32:31.520Z,79.28
2022-12-01T03:35:04.810Z,78.97
2022-12-01T03:37:37.687Z,79.48
2022-12-01T03:40:10.156Z,79.91
2022-12-01T03:42:42.668Z,79.46
2022-12-01T03:45:16.584Z,80.18
2022-12-01T03:47:46.306Z,79.99
2022-12-01T03:50:15.048Z,80.75
2022-12-01T03:52:50.564Z,80.75
2022-12-01T03:55:23.802Z,80.20
2022-12-01T03:57:57.916Z,80.16
2022-12-01T04:00:26.971Z,80.04
2022-12-01T04:02:58.210Z,79.83
2022-12-01T04:05:27.225Z,79.17
2022-12-01T04:07:55.201Z,79.08
2022-12-01T04:10:23.725Z,79.59
2022-12-01T04:12:50.836Z,80.12
2022-12-01T04:15:18.925Z,79.55
2022-12-01T04:17:47.053Z,78.88
2022-12-01T04:20:18.691Z,79.91
2022-12-01T04:22:46.700Z,79.87
2022-12-01T04:25:14.619Z,79.70
2022-12-01T04:27:42.500Z,80.06
2022-12-01T04:30:12.566Z,79.62
2022-12-01T04:32:40.909Z,79.48
2022-12-01T04:35:10.911Z,79.73
2022-12-01T04:37:41.794Z,79.86
2022-12-01T04:40:10.506Z,79.41
2022-12-01T04:42:38.365Z,79.87
2022-12-01T04:45:06.860Z,80.61
2022-12-01T04:47:34.770Z,80.83
2022-12-01T04:50:02.973Z,81.32
2022-12-01T04:52:35.232Z,82.05
2022-12-01T04:55:05.178Z,81.00
2022-12-01T04:57:33.229Z,81.49
2022-12-01T05:00:01.102Z,81.70
2022-12-01T05:02:28.969Z,82.35
2022-12-01T05:04:56.858Z,82.96
2022-12-01T05:07:24.851Z,83.08
2022-12-01T05:09:54.631Z,82.67
2022-12-01T05:12:23.854Z,82.44
2022-12-01T05:14:51.712Z,82.73
2022-12-01T05:17:19.604Z,82.22
2022-12-01T05:20:04.961Z,83.32
2022-12-01T05:23:03.910Z,82.91
2022-12-01T05:25:20.641Z,82.77
2022-12-01T05:27:49.909Z,82.32
2022-12-01T05:30:18.119Z,83.05
2022-12-01T05:32:46.038Z,82.63
2022-12-01T05:35:13.874Z,82.68
2022-12-01T05:37:44.473Z,82.66
2022-12-01T05:40:13.178Z,83.18
2022-12-01T05:42:41.039Z,81.99
2022-12-01T05:45:11.449Z,82.04
2022-12-01T05:47:39.300Z,81.79
2022-12-01T05:50:08.693Z,83.02
2022-12-01T05:52:37.437Z,82.93
2022-12-01T05:55:06.758Z,82.79
2022-12-01T05:57:34.970Z,83.12
2022-12-01T06:00:03.183Z,83.81
2022-12-01T06:02:32.650Z,82.90
2022-12-01T06:05:00.553Z,83.79
2022-12-01T06:07:28.474Z,83.02
2022-12-01T06:09:56.346Z,83.95
2022-12-01T06:12:24.272Z,84.14
2022-12-01T06:14:52.139Z,83.84
2022-12-01T06:17:20.182Z,84.13
2022-12-01T06:19:49.563Z,84.17
2022-12-01T06:22:17.629Z,83.73
2022-12-01T06:24:45.477Z,83.76
2022-12-01T06:27:13.366Z,83.83
2022-12-01T06:29:42.402Z,84.75
2022-12-01T06:32:11.401Z,83.99
2022-12-01T06:34:39.380Z,84.29
2022-12-01T06:37:08.706Z,84.97
2022-12-01T06:39:36.789Z,84.14
2022-12-01T06:42:05.124Z,84.70
2022-12-01T06:44:32.982Z,84.04
2022-12-01T06:47:00.858Z,84.53
2022-12-01T06:49:28.798Z,84.59
2022-12-01T06:51:56.795Z,86.98
2022-12-01T06:54:26.054Z,84.20
2022-12-01T06:56:53.918Z,84.09
2022-12-01T06:59:21.987Z,85.34
2022-12-01T07:01:49.962Z,82.33
2022-12-01T07:04:18.099Z,84.86
2022-12-01T07:06:45.986Z,83.22
2022-12-01T07:09:13.880Z,83.95
2022-12-01T07:11:43.131Z,85.36
2022-12-01T07:14:18.885Z,83.60
2022-12-01T07:16:47.104Z,84.62
2022-12-01T07:19:15.054Z,84.06
2022-12-01T07:21:42.907Z,83.64
2022-12-01T07:24:12.593Z,83.57
2022-12-01T07:26:41.224Z,82.59
2022-12-01T07:29:11.450Z,83.26
2022-12-01T07:31:40.355Z,84.08
2022-12-01T07:34:08.245Z,82.45
2022-12-01T07:36:36.142Z,82.89
2022-12-01T07:39:07.610Z,83.63
2022-12-01T07:41:36.567Z,83.13
2022-12-01T07:44:04.532Z,82.66
2022-12-01T07:46:38.295Z,83.20
2022-12-01T07:49:07.692Z,82.58
2022-12-01T07:51:35.796Z,82.10
2022-12-01T07:54:05.277Z,81.75
2022-12-01T07:56:35.022Z,82.88
2022-12-01T07:59:02.998Z,82.21
2022-12-01T08:01:31.124Z,81.65
2022-12-01T08:04:00.868Z,81.52
2022-12-01T08:06:28.738Z,82.08
2022-12-01T08:08:56.738Z,80.86
2022-12-01T08:11:26.765Z,81.98
2022-12-01T08:13:55.130Z,82.02
2022-12-01T08:16:25.658Z,82.19
2022-12-01T08:18:54.040Z,82.68
2022-12-01T08:21:25.412Z,82.48
2022-12-01T08:23:55.704Z,82.50
2022-12-01T08:26:24.689Z,82.70
2022-12-01T08:28:52.923Z,83.10
2022-12-01T08:31:23.236Z,82.15
2022-12-01T08:33:51.976Z,81.93
2022-12-01T08:36:37.276Z,82.56
2022-12-01T08:39:05.262Z,82.89
2022-12-01T08:41:33.181Z,82.68
2022-12-01T08:44:01.911Z,81.88
2022-12-01T08:46:37.593Z,82.33
2022-12-01T08:49:07.134Z,82.36
2022-12-01T08:51:37.391Z,80.42
2022-12-01T08:54:05.961Z,79.11
2022-12-01T08:56:35.565Z,78.32
2022-12-01T08:59:04.342Z,80.49
2022-12-01T09:01:33.008Z,77.96
2022-12-01T09:04:09.368Z,77.21
2022-12-01T09:06:42.605Z,77.15
2022-12-01T09:09:12.619Z,76.26
2022-12-01T09:11:41.314Z,76.47
2022-12-01T09:14:09.174Z,75.33
2022-12-01T09:16:37.510Z,76.21
2022-12-01T09:19:05.855Z,77.00
2022-12-01T09:21:36.989Z,76.56
2022-12-01T09:24:07.678Z,76.03
2022-12-01T09:26:35.670Z,74.49
2022-12-01T09:29:08.264Z,73.85
2022-12-01T09:31:36.983Z,74.55
2022-12-01T09:34:07.302Z,73.50
2022-12-01T09:36:36.954Z,73.36
2022-12-01T09:39:07.671Z,70.74
2022-12-01T09:41:38.925Z,68.62
2022-12-01T09:44:15.857Z,69.49
2022-12-01T09:46:47.492Z,70.74
2022-12-01T09:49:19.615Z,70.67
2022-12-01T09:51:47.591Z,69.33
2022-12-01T09:54:16.938Z,68.27
2022-12-01T09:56:49.469Z,66.37
2022-12-01T09:59:23.893Z,68.97
2022-12-01T10:01:56.667Z,69.10
2022-12-01T10:04:29.709Z,68.86
2022-12-01T10:07:01.076Z,67.59
2022-12-01T10:09:37.661Z,66.46
2022-12-01T10:12:14.738Z,66.75
2022-12-01T10:14:43.244Z,67.65
2022-12-01T10:17:22.842Z,65.75
2022-12-01T10:19:56.851Z,64.87
2022-12-01T10:22:54.358Z,65.26
2022-12-01T10:25:25.568Z,66.30
2022-12-01T10:28:13.647Z,67.32
2022-12-01T10:30:51.032Z,66.46
2022-12-01T10:33:25.319Z,65.73
2022-12-01T10:35:53.883Z,63.16
2022-12-01T10:38:27.102Z,61.13
2022-12-01T10:40:59.925Z,63.07
2022-12-01T10:43:33.984Z,64.09
2022-12-01T10:46:06.882Z,63.77
2022-12-01T10:48:34.800Z,64.40
2022-12-01T10:51:17.145Z,65.42
2022-12-01T10:53:45.021Z,66.89
2022-12-01T10:56:16.986Z,66.40
2022-12-01T10:58:48.070Z,66.58
2022-12-01T11:01:26.648Z,67.25
2022-12-01T11:03:57.950Z,66.18
2022-12-01T11:06:29.301Z,64.15
2022-12-01T11:08:59.396Z,64.33
2022-12-01T11:11:32.665Z,65.40
2022-12-01T11:14:03.494Z,61.57
2022-12-01T11:16:41.135Z,63.49
2022-12-01T11:19:27.499Z,63.53
2022-12-01T11:21:57.886Z,63.89
2022-12-01T11:24:42.570Z,64.55
2022-12-01T11:27:19.272Z,65.79
2022-12-01T11:29:49.791Z,68.22
2022-12-01T11:32:21.807Z,65.88
2022-12-01T11:34:53.338Z,68.12
2022-12-01T11:37:24.359Z,68.54
2022-12-01T11:39:53.373Z,68.66
2022-12-01T11:42:27.040Z,69.16
2022-12-01T11:44:57.525Z,68.44
2022-12-01T11:47:27.412Z,69.18
2022-12-01T11:49:57.778Z,68.58
2022-12-01T11:52:30.140Z,67.99
2022-12-01T11:55:13.160Z,65.84
2022-12-01T11:57:44.794Z,66.82
2022-12-01T12:00:16.858Z,66.27
2022-12-01T12:02:57.254Z,64.25
2022-12-01T12:05:42.294Z,65.85
2022-12-01T12:08:22.151Z,65.00
2022-12-01T12:11:04.343Z,63.58
2022-12-01T12:13:53.264Z,63.12
2022-12-01T12:16:36.114Z,66.48
2022-12-01T12:19:22.414Z,64.49
2022-12-01T12:22:08.431Z,65.52
2022-12-01T12:24:50.821Z,64.89
2022-12-01T12:27:31.656Z,65.66
2022-12-01T12:30:10.409Z,65.30
2022-12-01T12:33:14.010Z,62.01
2022-12-01T12:35:50.988Z,60.74
2022-12-01T12:38:46.625Z,59.84
2022-12-01T12:41:29.556Z,60.31
2022-12-01T12:44:10.680Z,60.45
2022-12-01T12:46:52.599Z,63.03
2022-12-01T12:49:37.415Z,64.37
2022-12-01T12:52:10.052Z,64.66
2022-12-01T12:54:48.912Z,66.79
2022-12-01T12:57:35.171Z,63.32
2022-12-01T13:00:06.799Z,63.98
2022-12-01T13:02:42.071Z,65.02
2022-12-01T13:05:19.923Z,65.72
2022-12-01T13:07:51.627Z,66.69
2022-12-01T13:10:27.906Z,67.86
2022-12-01T13:13:01.389Z,68.37
2022-12-01T13:15:32.218Z,68.99
2022-12-01T13:18:13.597Z,69.13
2022-12-01T13:20:42.710Z,69.74
2022-12-01T13:23:15.913Z,70.54
2022-12-01T13:25:45.418Z,70.64
2022-12-01T13:28:18.841Z,70.96
2022-12-01T13:31:00.993Z,71.28
2022-12-01T13:33:31.054Z,71.02
2022-12-01T13:36:38.107Z,70.89
2022-12-01T13:38:58.603Z,72.10
2022-12-01T13:41:30.607Z,72.12
2022-12-01T13:44:02.262Z,71.76
2022-12-01T13:46:33.223Z,72.15
2022-12-01T13:49:05.123Z,72.37
2022-12-01T13:52:06.589Z,72.57
2022-12-01T13:54:37.576Z,72.82
2022-12-01T13:57:08.147Z,73.12
2022-12-01T14:00:05.881Z,72.85
2022-12-01T14:02:35.361Z,72.80
2022-12-01T14:05:52.141Z,72.76
2022-12-01T14:08:24.721Z,73.91
2022-12-01T14:10:55.865Z,73.09
2022-12-01T14:13:24.973Z,73.33
2022-12-01T14:15:59.086Z,73.36
2022-12-01T14:18:36.827Z,73.42
2022-12-01T14:21:09.471Z,73.44
2022-12-01T14:23:39.863Z,72.97
2022-12-01T14:26:17.117Z,74.33
2022-12-01T14:29:21.348Z,74.27
2022-12-01T14:32:25.660Z,74.61
2022-12-01T14:35:06.955Z,75.11
2022-12-01T14:37:41.971Z,75.35
2022-12-01T14:40:18.853Z,74.67
2022-12-01T14:43:09.267Z,75.73
2022-12-01T14:45:42.895Z,75.27
2022-12-01T14:48:15.184Z,75.92
2022-12-01T14:50:49.119Z,76.75
2022-12-01T14:53:24.336Z,76.67
2022-12-01T14:55:56.601Z,76.41
2022-12-01T14:58:27.969Z,77.61
2022-12-01T15:01:07.570Z,77.35
2022-12-01T15:03:42.790Z,78.64
2022-12-01T15:06:11.731Z,78.79
2022-12-01T15:08:45.906Z,78.75
2022-12-01T15:11:25.411Z,79.59
2022-12-01T15:13:55.479Z,79.60
2022-12-01T15:16:26.011Z,80.96
2022-12-01T15:18:54.470Z,80.31
2022-12-01T15:21:24.772Z,81.20
2022-12-01T15:24:02.111Z,81.07
2022-12-01T15:26:33.884Z,81.65
2022-12-01T15:29:07.453Z,82.41
2022-12-01T15:31:36.233Z,82.25
2022-12-01T15:34:04.389Z,82.32
2022-12-01T15:36:32.647Z,82.09
2022-12-01T15:39:06.781Z,81.98
2022-12-01T15:41:40.113Z,82.67
2022-12-01T15:44:20.915Z,83.11
2022-12-01T15:46:48.996Z,82.96
2022-12-01T15:49:19.716Z,83.46
2022-12-01T15:51:49.244Z,83.85
2022-12-01T15:54:21.666Z,82.92
2022-12-01T15:56:54.101Z,83.33
2022-12-01T15:59:38.768Z,83.17
2022-12-01T16:02:26.819Z,83.29
2022-12-01T16:05:04.435Z,83.65
2022-12-01T16:08:10.981Z,84.68
2022-12-01T16:10:31.869Z,84.86
2022-12-01T16:13:39.441Z,84.79
2022-12-01T16:16:42.692Z,85.61
2022-12-01T16:19:36.025Z,85.49
2022-12-01T16:22:16.980Z,85.77
2022-12-01T16:24:48.208Z,85.68
2022-12-01T16:27:23.095Z,85.93
2022-12-01T16:29:53.684Z,86.71
2022-12-01T16:32:27.361Z,87.18
2022-12-01T16:34:55.315Z,87.08
2022-12-01T16:37:23.423Z,88.10
2022-12-01T16:39:51.609Z,88.81
2022-12-01T16:42:22.159Z,88.69
2022-12-01T16:44:51.101Z,88.56
2022-12-01T16:47:21.936Z,89.06
2022-12-01T16:49:50.112Z,89.09
2022-12-01T16:55:21.366Z,89.73
2022-12-01T16:57:50.634Z,89.44
2022-12-01T17:00:19.081Z,90.73
2022-12-01T17:02:46.935Z,90.82
2022-12-01T17:05:14.850Z,90.86
2022-12-01T17:07:42.789Z,91.89
2022-12-01T17:10:12.059Z,91.99
2022-12-01T17:12:40.120Z,91.59
2022-12-01T17:15:10.403Z,91.58
2022-12-01T17:17:38.422Z,91.97
2022-12-01T17:20:08.094Z,92.17
2022-12-01T17:22:36.627Z,92.75
2022-12-01T17:25:05.642Z,91.77
2022-12-01T17:27:33.831Z,90.47
2022-12-01T17:30:02.449Z,90.14
2022-12-01T17:32:32.187Z,89.50
2022-12-01T17:35:00.204Z,89.57
2022-12-01T17:37:28.936Z,88.55
2022-12-01T17:39:57.290Z,87.20
2022-12-01T17:42:25.292Z,87.75
2022-12-01T17:44:53.150Z,87.45
2022-12-01T17:47:20.991Z,86.32
2022-12-01T17:49:50.291Z,87.70
2022-12-01T17:52:19.069Z,88.19
2022-12-01T17:54:47.769Z,88.75
2022-12-01T17:57:15.925Z,88.10
2022-12-01T17:59:43.875Z,88.45
2022-12-01T18:02:13.911Z,88.78
2022-12-01T18:04:41.900Z,88.71
2022-12-01T18:07:11.205Z,88.11
2022-12-01T18:09:39.404Z,88.56
2022-12-01T18:12:07.725Z,89.56
2022-12-01T18:14:37.609Z,89.97
2022-12-01T18:17:05.774Z,90.21
2022-12-01T18:19:33.968Z,89.78
2022-12-01T18:22:01.836Z,91.11
2022-12-01T18:24:31.105Z,91.22
2022-12-01T18:26:58.992Z,91.33
2022-12-01T18:29:28.653Z,91.21
2022-12-01T18:31:56.979Z,91.33
2022-12-01T18:34:25.039Z,90.64
2022-12-01T18:36:52.893Z,89.69
2022-12-01T18:39:20.843Z,88.39
2022-12-01T18:41:50.632Z,89.01
2022-12-01T18:44:18.807Z,89.14
2022-12-01T18:46:46.981Z,88.75
2022-12-01T18:49:15.222Z,88.35
2022-12-01T18:51:43.213Z,88.71
2022-12-01T18:54:14.639Z,88.11
2022-12-01T18:56:43.175Z,88.75
2022-12-01T18:59:13.891Z,88.49
2022-12-01T19:01:44.080Z,87.58
2022-12-01T19:04:12.268Z,88.09
2022-12-01T19:06:43.600Z,87.97
2022-12-01T19:09:13.488Z,86.78
2022-12-01T19:11:42.370Z,86.30
2022-12-01T19:14:15.697Z,86.37
2022-12-01T19:16:43.845Z,86.64
2022-12-01T19:19:12.750Z,86.08
2022-12-01T19:21:40.863Z,86.25
2022-12-01T19:24:09.023Z,85.52
2022-12-01T19:26:37.012Z,85.84
2022-12-01T19:29:05.294Z,86.08
2022-12-01T19:31:34.840Z,85.03
2022-12-01T19:34:03.681Z,84.90
2022-12-01T19:36:31.871Z,84.94
2022-12-01T19:39:03.783Z,85.08
2022-12-01T19:41:33.900Z,85.18
2022-12-01T19:44:01.786Z,84.59
2022-12-01T19:46:29.675Z,84.24
2022-12-01T19:49:01.396Z,83.72
2022-12-01T19:51:31.480Z,83.95
2022-12-01T19:53:59.781Z,84.16
2022-12-01T19:56:29.356Z,84.06
2022-12-01T19:58:57.807Z,83.20
2022-12-01T20:01:26.424Z,83.08
2022-12-01T20:03:55.668Z,83.38
2022-12-01T20:06:26.944Z,83.62
2022-12-01T20:08:56.675Z,83.40
2022-12-01T20:11:25.204Z,82.82
2022-12-01T20:13:53.330Z,82.63
2022-12-01T20:16:23.188Z,82.71
2022-12-01T20:18:52.531Z,82.52
2022-12-01T20:21:22.974Z,82.42
2022-12-01T20:23:57.642Z,82.62
2022-12-01T20:26:30.395Z,81.73
2022-12-01T20:29:02.576Z,81.78
2022-12-01T20:31:32.739Z,81.04
2022-12-01T20:34:04.591Z,81.84
2022-12-01T20:36:32.865Z,81.63
2022-12-01T20:39:02.409Z,81.90
2022-12-01T20:41:30.994Z,81.37
2022-12-01T20:44:02.471Z,82.18
2022-12-01T20:46:35.271Z,81.70
2022-12-01T20:49:03.505Z,82.49
2022-12-01T20:51:33.610Z,82.29
2022-12-01T20:56:52.101Z,83.46
2022-12-01T20:59:19.994Z,82.41
2022-12-01T21:01:47.868Z,82.30
2022-12-01T21:04:16.028Z,81.96
2022-12-01T21:06:43.987Z,82.74
2022-12-01T21:09:15.000Z,82.03
2022-12-01T21:12:04.018Z,81.98
2022-12-01T21:14:36.964Z,83.06
2022-12-01T21:17:17.725Z,83.06
2022-12-01T21:19:56.540Z,82.67
2022-12-01T21:22:26.021Z,82.94
2022-12-01T21:25:03.797Z,83.56
2022-12-01T21:27:31.666Z,83.14
2022-12-01T21:29:59.549Z,82.94
2022-12-01T21:32:32.248Z,82.84
2022-12-01T21:35:04.382Z,83.03
2022-12-01T21:37:32.661Z,84.19
2022-12-01T21:40:01.968Z,83.75
2022-12-01T21:42:33.205Z,84.60
2022-12-01T21:45:01.909Z,84.61
2022-12-01T21:47:31.743Z,84.19
2022-12-01T21:50:03.746Z,84.75
2022-12-01T21:52:35.574Z,84.94
2022-12-01T21:55:31.224Z,84.42
2022-12-01T21:57:59.051Z,84.04
2022-12-01T22:00:30.171Z,84.78
2022-12-01T22:03:22.183Z,85.01
2022-12-01T22:06:21.177Z,85.35
2022-12-01T22:08:44.277Z,85.89
2022-12-01T22:11:18.636Z,84.91
2022-12-01T22:13:49.170Z,85.15
2022-12-01T22:16:20.642Z,85.32
2022-12-01T22:18:52.078Z,85.05
2022-12-01T22:21:36.376Z,84.24
2022-12-01T22:24:23.854Z,84.52
2022-12-01T22:27:00.402Z,85.09
2022-12-01T22:29:30.502Z,84.74
2022-12-01T22:32:40.260Z,85.06
2022-12-01T22:35:23.871Z,83.60
2022-12-01T22:37:53.679Z,85.21
2022-12-01T22:40:37.849Z,85.47
2022-12-01T22:43:22.841Z,87.11
2022-12-01T22:46:02.993Z,86.91
2022-12-01T22:48:36.769Z,87.35
2022-12-01T22:51:23.863Z,89.50
2022-12-01T22:53:54.602Z,89.12
2022-12-01T22:56:31.603Z,88.43
2022-12-01T22:59:00.875Z,88.14
2022-12-01T23:01:31.509Z,88.86
2022-12-01T23:04:14.379Z,88.34
2022-12-01T23:06:56.395Z,88.77
2022-12-01T23:09:27.447Z,88.92
2022-12-01T23:11:59.738Z,88.30
2022-12-01T23:14:29.493Z,88.37
2022-12-01T23:17:06.725Z,89.17
2022-12-01T23:19:35.733Z,88.62
2022-12-01T23:22:03.885Z,88.71
2022-12-01T23:24:33.993Z,88.12
2022-12-01T23:27:02.306Z,88.49
2022-12-01T23:29:32.401Z,87.14
2022-12-01T23:32:00.355Z,87.38
2022-12-01T23:34:29.411Z,87.70
2022-12-01T23:36:58.213Z,87.34
2022-12-01T23:39:33.316Z,87.36
2022-12-01T23:42:01.466Z,88.22
2022-12-01T23:44:38.784Z,87.92
2022-12-01T23:47:16.971Z,87.57
2022-12-01T23:49:46.383Z,87.44
2022-12-01T23:52:19.771Z,87.88
2022-12-01T23:54:48.735Z,87.72
2022-12-01T23:57:21.826Z,87.58
2022-12-01T23:59:55.868Z,87.65
